sensor_id;sensor_type;location;lat;lon;timestamp;temperature;humidity
6740;DHT22;3407;49.882;10.920;2023-04-24T00:03:47;12.00;9.10
6740;DHT22;3407;49.882;10.920;2023-04-24T00:08:43;12.00;10.80
6740;DHT22;3407;49.882;10.920;2023-04-24T00:13:39;12.00;18.60
6740;DHT22;3407;49.882;10.920;2023-04-24T00:18:35;12.00;16.40
6740;DHT22;3407;49.882;10.920;2023-04-24T00:23:30;12.00;20.80
6740;DHT22;3407;49.882;10.920;2023-04-24T00:28:26;12.00;23.50
6740;DHT22;3407;49.882;10.920;2023-04-24T00:33:21;11.90;20.60
6740;DHT22;3407;49.882;10.920;2023-04-24T00:38:17;11.90;18.90
6740;DHT22;3407;49.882;10.920;2023-04-24T00:43:12;11.90;5.10
6740;DHT22;3407;49.882;10.920;2023-04-24T00:48:08;11.90;1.00
6740;DHT22;3407;49.882;10.920;2023-04-24T00:53:04;11.80;1.00
6740;DHT22;3407;49.882;10.920;2023-04-24T00:57:59;11.80;1.00
6740;DHT22;3407;49.882;10.920;2023-04-24T01:02:55;11.90;1.00
6740;DHT22;3407;49.882;10.920;2023-04-24T01:07:53;11.80;1.00
6740;DHT22;3407;49.882;10.920;2023-04-24T01:12:48;11.90;1.00
6740;DHT22;3407;49.882;10.920;2023-04-24T01:17:44;11.80;1.00
6740;DHT22;3407;49.882;10.920;2023-04-24T01:22:40;11.90;1.00
6740;DHT22;3407;49.882;10.920;2023-04-24T01:27:36;11.80;1.00
6740;DHT22;3407;49.882;10.920;2023-04-24T01:32:32;11.80;1.00
6740;DHT22;3407;49.882;10.920;2023-04-24T01:37:28;11.80;1.00
6740;DHT22;3407;49.882;10.920;2023-04-24T01:42:23;11.80;1.00
6740;DHT22;3407;49.882;10.920;2023-04-24T01:47:19;11.80;1.00
6740;DHT22;3407;49.882;10.920;2023-04-24T01:52:15;11.80;1.00
6740;DHT22;3407;49.882;10.920;2023-04-24T01:57:11;11.80;1.00
6740;DHT22;3407;49.882;10.920;2023-04-24T02:02:07;11.80;1.00
6740;DHT22;3407;49.882;10.920;2023-04-24T02:07:02;11.80;1.00
6740;DHT22;3407;49.882;10.920;2023-04-24T02:11:58;11.80;4.80
6740;DHT22;3407;49.882;10.920;2023-04-24T02:16:54;11.80;3.70
6740;DHT22;3407;49.882;10.920;2023-04-24T02:21:49;11.70;6.40
6740;DHT22;3407;49.882;10.920;2023-04-24T02:26:45;11.70;5.60
6740;DHT22;3407;49.882;10.920;2023-04-24T02:31:41;11.70;1.00
6740;DHT22;3407;49.882;10.920;2023-04-24T02:36:36;11.60;7.30
6740;DHT22;3407;49.882;10.920;2023-04-24T02:41:38;11.60;10.00
6740;DHT22;3407;49.882;10.920;2023-04-24T02:46:34;11.50;8.50
6740;DHT22;3407;49.882;10.920;2023-04-24T02:51:29;11.60;6.90
6740;DHT22;3407;49.882;10.920;2023-04-24T02:56:26;11.60;1.00
6740;DHT22;3407;49.882;10.920;2023-04-24T03:01:21;11.60;1.00
6740;DHT22;3407;49.882;10.920;2023-04-24T03:06:17;11.70;1.00
6740;DHT22;3407;49.882;10.920;2023-04-24T03:11:12;11.70;1.00
6740;DHT22;3407;49.882;10.920;2023-04-24T03:16:08;11.70;1.00
6740;DHT22;3407;49.882;10.920;2023-04-24T03:21:03;11.70;1.00
6740;DHT22;3407;49.882;10.920;2023-04-24T03:25:59;11.70;1.00
6740;DHT22;3407;49.882;10.920;2023-04-24T03:30:55;11.70;1.00
6740;DHT22;3407;49.882;10.920;2023-04-24T03:35:50;11.60;1.00
6740;DHT22;3407;49.882;10.920;2023-04-24T03:40:46;11.60;1.00
6740;DHT22;3407;49.882;10.920;2023-04-24T03:45:41;11.50;1.00
6740;DHT22;3407;49.882;10.920;2023-04-24T03:50:37;11.50;1.00
6740;DHT22;3407;49.882;10.920;2023-04-24T03:55:32;11.40;1.00
6740;DHT22;3407;49.882;10.920;2023-04-24T04:00:28;11.40;1.00
6740;DHT22;3407;49.882;10.920;2023-04-24T04:05:23;11.40;1.00
6740;DHT22;3407;49.882;10.920;2023-04-24T04:10:19;11.30;1.00
6740;DHT22;3407;49.882;10.920;2023-04-24T04:15:15;11.30;1.00
6740;DHT22;3407;49.882;10.920;2023-04-24T04:20:10;11.30;1.00
6740;DHT22;3407;49.882;10.920;2023-04-24T04:25:07;11.30;1.00
6740;DHT22;3407;49.882;10.920;2023-04-24T04:30:04;11.30;1.00
6740;DHT22;3407;49.882;10.920;2023-04-24T04:35:02;11.30;1.00
6740;DHT22;3407;49.882;10.920;2023-04-24T04:39:58;11.30;1.00
6740;DHT22;3407;49.882;10.920;2023-04-24T04:44:54;11.30;1.00
6740;DHT22;3407;49.882;10.920;2023-04-24T04:49:50;11.30;1.00
6740;DHT22;3407;49.882;10.920;2023-04-24T04:54:46;11.40;1.00
6740;DHT22;3407;49.882;10.920;2023-04-24T04:59:42;11.40;1.00
6740;DHT22;3407;49.882;10.920;2023-04-24T05:04:37;11.50;1.00
6740;DHT22;3407;49.882;10.920;2023-04-24T05:09:33;11.50;1.00
6740;DHT22;3407;49.882;10.920;2023-04-24T05:14:29;11.60;1.00
6740;DHT22;3407;49.882;10.920;2023-04-24T05:19:24;11.60;1.00
6740;DHT22;3407;49.882;10.920;2023-04-24T05:24:20;11.70;1.00
6740;DHT22;3407;49.882;10.920;2023-04-24T05:29:15;11.80;1.00
6740;DHT22;3407;49.882;10.920;2023-04-24T05:34:11;11.80;1.00
6740;DHT22;3407;49.882;10.920;2023-04-24T05:39:06;11.80;1.00
6740;DHT22;3407;49.882;10.920;2023-04-24T05:44:03;11.90;1.00
6740;DHT22;3407;49.882;10.920;2023-04-24T05:48:59;11.90;1.00
6740;DHT22;3407;49.882;10.920;2023-04-24T05:53:54;11.90;1.00
6740;DHT22;3407;49.882;10.920;2023-04-24T05:58:50;11.90;1.00
6740;DHT22;3407;49.882;10.920;2023-04-24T06:03:45;12.00;1.00
6740;DHT22;3407;49.882;10.920;2023-04-24T06:08:41;12.10;1.00
6740;DHT22;3407;49.882;10.920;2023-04-24T06:13:38;12.10;1.00
6740;DHT22;3407;49.882;10.920;2023-04-24T06:18:33;12.10;1.00
6740;DHT22;3407;49.882;10.920;2023-04-24T06:23:29;12.00;1.00
6740;DHT22;3407;49.882;10.920;2023-04-24T06:28:27;11.70;1.00
6740;DHT22;3407;49.882;10.920;2023-04-24T06:33:23;11.50;1.00
6740;DHT22;3407;49.882;10.920;2023-04-24T06:38:18;11.60;1.00
6740;DHT22;3407;49.882;10.920;2023-04-24T06:43:14;11.60;1.00
6740;DHT22;3407;49.882;10.920;2023-04-24T06:48:10;11.80;1.00
6740;DHT22;3407;49.882;10.920;2023-04-24T06:53:05;12.10;1.00
6740;DHT22;3407;49.882;10.920;2023-04-24T06:58:01;12.30;1.00
6740;DHT22;3407;49.882;10.920;2023-04-24T07:02:56;12.30;99.90
6740;DHT22;3407;49.882;10.920;2023-04-24T07:07:52;12.40;1.00
6740;DHT22;3407;49.882;10.920;2023-04-24T07:12:48;12.40;22.60
6740;DHT22;3407;49.882;10.920;2023-04-24T07:17:44;12.70;99.90
6740;DHT22;3407;49.882;10.920;2023-04-24T07:22:39;13.00;1.00
6740;DHT22;3407;49.882;10.920;2023-04-24T07:27:35;13.40;1.00
6740;DHT22;3407;49.882;10.920;2023-04-24T07:32:31;14.10;99.90
6740;DHT22;3407;49.882;10.920;2023-04-24T07:37:28;14.50;1.00
6740;DHT22;3407;49.882;10.920;2023-04-24T07:42:23;15.30;1.00
6740;DHT22;3407;49.882;10.920;2023-04-24T07:47:19;15.70;99.90
6740;DHT22;3407;49.882;10.920;2023-04-24T07:52:14;15.30;99.90
6740;DHT22;3407;49.882;10.920;2023-04-24T07:57:10;16.20;99.90
6740;DHT22;3407;49.882;10.920;2023-04-24T08:02:06;18.10;99.90
6740;DHT22;3407;49.882;10.920;2023-04-24T08:07:01;23.10;99.90
6740;DHT22;3407;49.882;10.920;2023-04-24T08:11:57;26.70;99.90
6740;DHT22;3407;49.882;10.920;2023-04-24T08:16:54;25.20;99.90
6740;DHT22;3407;49.882;10.920;2023-04-24T08:21:50;24.20;99.90
6740;DHT22;3407;49.882;10.920;2023-04-24T08:26:46;22.00;99.90
6740;DHT22;3407;49.882;10.920;2023-04-24T08:31:45;20.20;99.90
6740;DHT22;3407;49.882;10.920;2023-04-24T08:36:40;19.40;99.90
6740;DHT22;3407;49.882;10.920;2023-04-24T08:41:37;21.60;99.90
6740;DHT22;3407;49.882;10.920;2023-04-24T08:46:33;20.20;99.90
6740;DHT22;3407;49.882;10.920;2023-04-24T08:51:29;18.10;99.90
6740;DHT22;3407;49.882;10.920;2023-04-24T08:56:26;17.10;99.90
6740;DHT22;3407;49.882;10.920;2023-04-24T09:01:24;16.50;99.90
6740;DHT22;3407;49.882;10.920;2023-04-24T09:06:21;16.20;99.90
6740;DHT22;3407;49.882;10.920;2023-04-24T09:11:17;16.50;99.90
6740;DHT22;3407;49.882;10.920;2023-04-24T09:16:13;16.00;99.90
6740;DHT22;3407;49.882;10.920;2023-04-24T09:21:10;15.30;99.90
6740;DHT22;3407;49.882;10.920;2023-04-24T09:26:05;15.40;99.90
6740;DHT22;3407;49.882;10.920;2023-04-24T09:31:13;15.80;99.90
6740;DHT22;3407;49.882;10.920;2023-04-24T09:36:09;16.00;99.90
6740;DHT22;3407;49.882;10.920;2023-04-24T09:41:07;15.60;99.90
6740;DHT22;3407;49.882;10.920;2023-04-24T09:46:07;15.10;99.90
6740;DHT22;3407;49.882;10.920;2023-04-24T09:51:05;14.50;99.90
6740;DHT22;3407;49.882;10.920;2023-04-24T09:56:10;14.40;99.90
6740;DHT22;3407;49.882;10.920;2023-04-24T10:01:05;14.70;99.90
6740;DHT22;3407;49.882;10.920;2023-04-24T10:06:02;15.20;99.90
6740;DHT22;3407;49.882;10.920;2023-04-24T10:11:03;15.60;99.90
6740;DHT22;3407;49.882;10.920;2023-04-24T10:16:00;15.50;99.90
6740;DHT22;3407;49.882;10.920;2023-04-24T10:20:56;14.90;99.90
6740;DHT22;3407;49.882;10.920;2023-04-24T10:25:52;14.20;99.90
6740;DHT22;3407;49.882;10.920;2023-04-24T10:30:49;13.80;99.90
6740;DHT22;3407;49.882;10.920;2023-04-24T10:35:47;14.10;99.90
6740;DHT22;3407;49.882;10.920;2023-04-24T10:40:44;14.50;99.90
6740;DHT22;3407;49.882;10.920;2023-04-24T10:45:39;15.40;99.90
6740;DHT22;3407;49.882;10.920;2023-04-24T10:50:46;17.10;99.90
6740;DHT22;3407;49.882;10.920;2023-04-24T10:55:47;17.60;99.90
6740;DHT22;3407;49.882;10.920;2023-04-24T11:00:44;17.80;99.90
6740;DHT22;3407;49.882;10.920;2023-04-24T11:05:58;21.70;99.90
6740;DHT22;3407;49.882;10.920;2023-04-24T11:11:02;20.80;99.90
6740;DHT22;3407;49.882;10.920;2023-04-24T11:21:12;18.20;99.90
6740;DHT22;3407;49.882;10.920;2023-04-24T11:26:12;19.70;99.90
6740;DHT22;3407;49.882;10.920;2023-04-24T11:31:44;21.60;99.90
6740;DHT22;3407;49.882;10.920;2023-04-24T11:36:46;19.30;99.90
6740;DHT22;3407;49.882;10.920;2023-04-24T11:41:42;17.30;99.90
6740;DHT22;3407;49.882;10.920;2023-04-24T11:46:38;17.40;99.90
6740;DHT22;3407;49.882;10.920;2023-04-24T11:51:35;20.10;99.90
6740;DHT22;3407;49.882;10.920;2023-04-24T11:56:30;21.50;99.90
6740;DHT22;3407;49.882;10.920;2023-04-24T12:01:26;21.00;99.90
6740;DHT22;3407;49.882;10.920;2023-04-24T12:06:21;19.60;99.90
6740;DHT22;3407;49.882;10.920;2023-04-24T12:11:17;18.10;99.90
6740;DHT22;3407;49.882;10.920;2023-04-24T12:16:13;16.70;99.90
6740;DHT22;3407;49.882;10.920;2023-04-24T12:21:19;16.10;99.90
6740;DHT22;3407;49.882;10.920;2023-04-24T12:26:19;15.60;99.90
6740;DHT22;3407;49.882;10.920;2023-04-24T12:31:15;14.80;99.90
6740;DHT22;3407;49.882;10.920;2023-04-24T12:36:11;15.00;99.90
6740;DHT22;3407;49.882;10.920;2023-04-24T12:41:09;16.00;99.90
6740;DHT22;3407;49.882;10.920;2023-04-24T12:46:05;16.80;99.90
6740;DHT22;3407;49.882;10.920;2023-04-24T12:51:01;17.90;99.90
6740;DHT22;3407;49.882;10.920;2023-04-24T12:55:57;19.90;99.90
6740;DHT22;3407;49.882;10.920;2023-04-24T13:00:52;20.90;99.90
6740;DHT22;3407;49.882;10.920;2023-04-24T13:05:48;20.10;99.90
6740;DHT22;3407;49.882;10.920;2023-04-24T13:10:43;21.90;99.90
6740;DHT22;3407;49.882;10.920;2023-04-24T13:15:39;21.80;99.90
6740;DHT22;3407;49.882;10.920;2023-04-24T13:20:34;20.90;99.90
6740;DHT22;3407;49.882;10.920;2023-04-24T13:25:35;18.80;99.90
6740;DHT22;3407;49.882;10.920;2023-04-24T13:30:32;19.00;99.90
6740;DHT22;3407;49.882;10.920;2023-04-24T13:35:28;21.10;99.90
6740;DHT22;3407;49.882;10.920;2023-04-24T13:40:23;22.30;99.90
6740;DHT22;3407;49.882;10.920;2023-04-24T13:45:19;21.00;99.90
6740;DHT22;3407;49.882;10.920;2023-04-24T13:50:15;19.30;99.90
6740;DHT22;3407;49.882;10.920;2023-04-24T13:55:11;17.80;99.90
6740;DHT22;3407;49.882;10.920;2023-04-24T14:00:07;16.80;99.90
6740;DHT22;3407;49.882;10.920;2023-04-24T14:05:05;15.70;99.90
6740;DHT22;3407;49.882;10.920;2023-04-24T14:10:01;14.90;99.90
6740;DHT22;3407;49.882;10.920;2023-04-24T14:14:57;14.70;99.90
6740;DHT22;3407;49.882;10.920;2023-04-24T14:19:53;14.60;99.90
6740;DHT22;3407;49.882;10.920;2023-04-24T14:24:51;14.30;1.00
6740;DHT22;3407;49.882;10.920;2023-04-24T14:29:47;13.50;1.00
6740;DHT22;3407;49.882;10.920;2023-04-24T14:34:42;13.00;1.00
6740;DHT22;3407;49.882;10.920;2023-04-24T14:39:38;13.00;1.00
6740;DHT22;3407;49.882;10.920;2023-04-24T14:44:33;13.00;1.00
6740;DHT22;3407;49.882;10.920;2023-04-24T14:49:29;13.00;1.00
6740;DHT22;3407;49.882;10.920;2023-04-24T14:54:24;13.40;99.90
6740;DHT22;3407;49.882;10.920;2023-04-24T14:59:20;13.90;99.90
6740;DHT22;3407;49.882;10.920;2023-04-24T15:04:16;14.20;1.00
6740;DHT22;3407;49.882;10.920;2023-04-24T15:09:11;14.40;82.50
6740;DHT22;3407;49.882;10.920;2023-04-24T15:14:07;14.50;1.00
6740;DHT22;3407;49.882;10.920;2023-04-24T15:19:02;14.20;1.00
6740;DHT22;3407;49.882;10.920;2023-04-24T15:23:58;13.90;99.90
6740;DHT22;3407;49.882;10.920;2023-04-24T15:28:54;13.90;1.00
6740;DHT22;3407;49.882;10.920;2023-04-24T15:33:50;13.80;1.00
6740;DHT22;3407;49.882;10.920;2023-04-24T15:38:45;13.00;1.00
6740;DHT22;3407;49.882;10.920;2023-04-24T15:43:41;12.80;1.00
6740;DHT22;3407;49.882;10.920;2023-04-24T15:48:36;13.00;1.00
6740;DHT22;3407;49.882;10.920;2023-04-24T15:53:34;13.20;1.00
6740;DHT22;3407;49.882;10.920;2023-04-24T15:58:29;13.50;1.00
6740;DHT22;3407;49.882;10.920;2023-04-24T16:03:25;13.40;99.90
6740;DHT22;3407;49.882;10.920;2023-04-24T16:08:20;13.30;1.00
6740;DHT22;3407;49.882;10.920;2023-04-24T16:13:16;13.30;1.00
6740;DHT22;3407;49.882;10.920;2023-04-24T16:18:13;13.30;99.90
6740;DHT22;3407;49.882;10.920;2023-04-24T16:23:08;13.40;99.90
6740;DHT22;3407;49.882;10.920;2023-04-24T16:28:04;13.30;99.90
6740;DHT22;3407;49.882;10.920;2023-04-24T16:32:59;13.40;99.90
6740;DHT22;3407;49.882;10.920;2023-04-24T16:37:55;13.40;99.90
6740;DHT22;3407;49.882;10.920;2023-04-24T16:42:51;13.50;99.90
6740;DHT22;3407;49.882;10.920;2023-04-24T16:47:47;13.60;99.90
6740;DHT22;3407;49.882;10.920;2023-04-24T16:52:42;13.50;99.90
6740;DHT22;3407;49.882;10.920;2023-04-24T16:57:38;13.30;99.90
6740;DHT22;3407;49.882;10.920;2023-04-24T17:02:33;13.10;99.90
6740;DHT22;3407;49.882;10.920;2023-04-24T17:07:29;12.20;99.90
6740;DHT22;3407;49.882;10.920;2023-04-24T17:12:26;11.00;1.00
6740;DHT22;3407;49.882;10.920;2023-04-24T17:17:21;10.40;1.00
6740;DHT22;3407;49.882;10.920;2023-04-24T17:22:17;10.10;1.00
6740;DHT22;3407;49.882;10.920;2023-04-24T17:27:13;10.20;1.00
6740;DHT22;3407;49.882;10.920;2023-04-24T17:32:08;10.30;1.00
6740;DHT22;3407;49.882;10.920;2023-04-24T17:37:04;10.40;1.00
6740;DHT22;3407;49.882;10.920;2023-04-24T17:42:00;10.50;1.00
6740;DHT22;3407;49.882;10.920;2023-04-24T17:46:56;10.50;1.00
6740;DHT22;3407;49.882;10.920;2023-04-24T17:51:52;10.50;1.00
6740;DHT22;3407;49.882;10.920;2023-04-24T17:56:47;10.50;1.00
6740;DHT22;3407;49.882;10.920;2023-04-24T18:01:43;10.30;1.00
6740;DHT22;3407;49.882;10.920;2023-04-24T18:06:39;10.20;1.00
6740;DHT22;3407;49.882;10.920;2023-04-24T18:11:34;10.10;1.00
6740;DHT22;3407;49.882;10.920;2023-04-24T18:16:30;9.90;1.00
6740;DHT22;3407;49.882;10.920;2023-04-24T18:21:25;9.80;1.00
6740;DHT22;3407;49.882;10.920;2023-04-24T18:26:22;9.70;1.00
6740;DHT22;3407;49.882;10.920;2023-04-24T18:31:18;9.60;1.00
6740;DHT22;3407;49.882;10.920;2023-04-24T18:36:14;9.60;1.00
6740;DHT22;3407;49.882;10.920;2023-04-24T18:41:09;9.80;13.00
6740;DHT22;3407;49.882;10.920;2023-04-24T18:46:05;9.60;1.00
6740;DHT22;3407;49.882;10.920;2023-04-24T18:51:01;9.40;1.00
6740;DHT22;3407;49.882;10.920;2023-04-24T18:55:56;9.40;5.60
6740;DHT22;3407;49.882;10.920;2023-04-24T19:00:52;9.50;14.60
6740;DHT22;3407;49.882;10.920;2023-04-24T19:05:47;9.50;7.50
6740;DHT22;3407;49.882;10.920;2023-04-24T19:10:43;9.40;12.60
6740;DHT22;3407;49.882;10.920;2023-04-24T19:15:39;9.30;8.10
6740;DHT22;3407;49.882;10.920;2023-04-24T19:20:34;9.20;18.30
6740;DHT22;3407;49.882;10.920;2023-04-24T19:25:30;9.20;24.60
6740;DHT22;3407;49.882;10.920;2023-04-24T19:30:25;9.10;26.60
6740;DHT22;3407;49.882;10.920;2023-04-24T19:35:21;9.20;32.80
6740;DHT22;3407;49.882;10.920;2023-04-24T19:40:17;9.20;26.70
6740;DHT22;3407;49.882;10.920;2023-04-24T19:45:12;9.10;23.10
6740;DHT22;3407;49.882;10.920;2023-04-24T19:50:08;9.10;28.60
6740;DHT22;3407;49.882;10.920;2023-04-24T19:55:04;9.10;26.40
6740;DHT22;3407;49.882;10.920;2023-04-24T20:00:00;9.20;30.20
6740;DHT22;3407;49.882;10.920;2023-04-24T20:04:55;9.20;25.10
6740;DHT22;3407;49.882;10.920;2023-04-24T20:09:51;9.10;20.60
6740;DHT22;3407;49.882;10.920;2023-04-24T20:14:47;9.00;22.10
6740;DHT22;3407;49.882;10.920;2023-04-24T20:19:43;8.90;28.20
6740;DHT22;3407;49.882;10.920;2023-04-24T20:24:38;8.90;24.40
6740;DHT22;3407;49.882;10.920;2023-04-24T20:29:34;8.90;19.90
6740;DHT22;3407;49.882;10.920;2023-04-24T20:34:30;8.90;9.20
6740;DHT22;3407;49.882;10.920;2023-04-24T20:39:26;8.90;1.00
6740;DHT22;3407;49.882;10.920;2023-04-24T20:44:25;8.90;1.00
6740;DHT22;3407;49.882;10.920;2023-04-24T20:49:21;9.00;1.00
6740;DHT22;3407;49.882;10.920;2023-04-24T20:54:19;9.00;1.00
6740;DHT22;3407;49.882;10.920;2023-04-24T20:59:18;9.20;1.00
6740;DHT22;3407;49.882;10.920;2023-04-24T21:04:14;9.30;1.00
6740;DHT22;3407;49.882;10.920;2023-04-24T21:09:10;9.30;1.00
6740;DHT22;3407;49.882;10.920;2023-04-24T21:14:05;9.30;1.00
6740;DHT22;3407;49.882;10.920;2023-04-24T21:19:01;9.30;1.00
6740;DHT22;3407;49.882;10.920;2023-04-24T21:23:56;9.40;1.00
6740;DHT22;3407;49.882;10.920;2023-04-24T21:28:52;9.40;1.00
6740;DHT22;3407;49.882;10.920;2023-04-24T21:33:48;9.50;1.00
6740;DHT22;3407;49.882;10.920;2023-04-24T21:38:43;9.50;1.00
6740;DHT22;3407;49.882;10.920;2023-04-24T21:43:39;9.60;1.00
6740;DHT22;3407;49.882;10.920;2023-04-24T21:48:34;9.50;1.00
6740;DHT22;3407;49.882;10.920;2023-04-24T21:53:30;9.50;1.00
6740;DHT22;3407;49.882;10.920;2023-04-24T21:58:25;9.50;1.00
6740;DHT22;3407;49.882;10.920;2023-04-24T22:03:21;9.50;1.00
6740;DHT22;3407;49.882;10.920;2023-04-24T22:08:17;9.40;1.00
6740;DHT22;3407;49.882;10.920;2023-04-24T22:13:12;9.40;1.00
6740;DHT22;3407;49.882;10.920;2023-04-24T22:18:08;9.20;1.00
6740;DHT22;3407;49.882;10.920;2023-04-24T22:23:03;9.00;1.00
6740;DHT22;3407;49.882;10.920;2023-04-24T22:27:59;9.00;1.00
6740;DHT22;3407;49.882;10.920;2023-04-24T22:32:54;9.00;1.00
6740;DHT22;3407;49.882;10.920;2023-04-24T22:37:54;8.80;1.00
6740;DHT22;3407;49.882;10.920;2023-04-24T22:42:49;8.70;1.00
6740;DHT22;3407;49.882;10.920;2023-04-24T22:47:45;8.60;1.00
6740;DHT22;3407;49.882;10.920;2023-04-24T22:52:40;8.50;1.00
6740;DHT22;3407;49.882;10.920;2023-04-24T22:57:38;8.40;1.00
6740;DHT22;3407;49.882;10.920;2023-04-24T23:02:34;8.30;1.00
6740;DHT22;3407;49.882;10.920;2023-04-24T23:07:30;8.50;1.00
6740;DHT22;3407;49.882;10.920;2023-04-24T23:12:25;8.70;1.00
6740;DHT22;3407;49.882;10.920;2023-04-24T23:17:21;8.70;1.00
6740;DHT22;3407;49.882;10.920;2023-04-24T23:22:17;8.50;1.00
6740;DHT22;3407;49.882;10.920;2023-04-24T23:27:12;8.40;1.00
6740;DHT22;3407;49.882;10.920;2023-04-24T23:32:08;8.40;1.00
6740;DHT22;3407;49.882;10.920;2023-04-24T23:37:04;8.50;1.00
6740;DHT22;3407;49.882;10.920;2023-04-24T23:42:00;8.60;1.00
6740;DHT22;3407;49.882;10.920;2023-04-24T23:46:57;8.70;1.00
6740;DHT22;3407;49.882;10.920;2023-04-24T23:51:52;8.80;1.00
6740;DHT22;3407;49.882;10.920;2023-04-24T23:56:48;8.80;1.00
